Time;durP1;ratioP1;P1;durP2;ratioP2;P2;SDS_P1;SDS_P2;PMS_P1;PMS_P2;Temp;Humidity;BMP_temperature;BMP_pressure;BME280_temperature;BME280_humidity;BME280_pressure;Samples;Min_cycle;Max_cycle;Signal;HPM_P1;HPM_P2
2023/03/21 00:01:50;;;;;;;8.20;3.20;;;12.30;66.40;;;;;;5010231;28;20479;-84
2023/03/21 00:04:20;;;;;;;7.67;3.60;;;12.30;66.50;;;;;;5012115;28;20475;-83
2023/03/21 00:06:49;;;;;;;8.17;3.43;;;12.40;66.50;;;;;;5012702;28;20459;-82
2023/03/21 00:09:20;;;;;;;8.00;3.33;;;12.30;66.50;;;;;;5013498;28;20532;-82
2023/03/21 00:11:49;;;;;;;13.40;3.20;;;12.30;66.60;;;;;;4997126;28;20459;-82
2023/03/21 00:14:18;;;;;;;6.53;3.00;;;12.30;66.70;;;;;;5013666;28;20762;-82
2023/03/21 00:16:49;;;;;;;7.57;3.47;;;12.30;66.80;;;;;;5012405;28;20479;-84
2023/03/21 00:19:25;;;;;;;8.20;3.20;;;12.30;66.80;;;;;;5007724;28;20465;-83
2023/03/21 00:21:54;;;;;;;6.27;3.30;;;12.30;67.00;;;;;;5017445;28;20469;-83
2023/03/21 00:24:42;;;;;;;8.03;2.70;;;12.30;67.00;;;;;;5014369;28;20506;-83
2023/03/21 00:27:10;;;;;;;7.77;3.50;;;12.30;67.10;;;;;;5015511;28;20485;-82
2023/03/21 00:29:58;;;;;;;6.20;3.10;;;12.30;67.10;;;;;;5012869;28;20463;-84
2023/03/21 00:32:26;;;;;;;8.00;4.00;;;12.20;67.30;;;;;;5011311;28;20488;-83
2023/03/21 00:34:55;;;;;;;6.60;3.20;;;12.20;67.40;;;;;;5014307;28;20536;-81
2023/03/21 00:37:45;;;;;;;5.90;3.63;;;12.20;67.50;;;;;;5022410;28;20463;-83
2023/03/21 00:40:13;;;;;;;7.23;2.90;;;12.20;67.60;;;;;;5010281;28;20455;-84
2023/03/21 00:43:02;;;;;;;6.10;3.50;;;12.20;67.70;;;;;;5011432;28;20454;-83
2023/03/21 00:45:30;;;;;;;7.27;3.17;;;12.20;67.70;;;;;;5013943;28;20465;-82
2023/03/21 00:48:01;;;;;;;5.50;2.93;;;12.20;67.80;;;;;;5012576;28;20478;-83
2023/03/21 00:50:33;;;;;;;5.93;2.60;;;12.10;67.80;;;;;;5013235;28;20453;-84
2023/03/21 00:53:01;;;;;;;6.97;2.97;;;12.10;67.90;;;;;;5013751;28;20466;-85
2023/03/21 00:55:29;;;;;;;11.13;2.80;;;12.10;68.00;;;;;;5009983;28;20452;-80
2023/03/21 00:57:57;;;;;;;6.93;3.03;;;12.10;68.10;;;;;;5012482;28;20461;-80
2023/03/21 01:00:29;;;;;;;9.23;3.20;;;12.10;68.10;;;;;;5010508;28;20466;-83
2023/03/21 01:03:06;;;;;;;7.03;2.80;;;12.10;68.20;;;;;;5007274;28;20839;-82
2023/03/21 01:06:04;;;;;;;8.10;2.90;;;12.10;68.30;;;;;;5011632;28;20523;-83
2023/03/21 01:08:34;;;;;;;10.43;4.20;;;12.10;68.30;;;;;;5015641;28;20472;-83
2023/03/21 01:11:20;;;;;;;10.33;3.83;;;12.00;68.40;;;;;;5013650;28;20574;-83
2023/03/21 01:13:48;;;;;;;6.97;3.30;;;12.00;68.40;;;;;;5016556;28;20461;-85
2023/03/21 01:16:36;;;;;;;13.10;3.90;;;11.90;68.40;;;;;;5010893;28;20525;-81
2023/03/21 01:19:06;;;;;;;8.87;3.67;;;11.90;68.60;;;;;;5012881;28;20464;-82
2023/03/21 01:21:50;;;;;;;7.33;3.87;;;11.90;68.70;;;;;;4997204;28;20557;-81
2023/03/21 01:24:18;;;;;;;7.60;3.60;;;11.90;68.80;;;;;;5015259;28;20471;-82
2023/03/21 01:26:46;;;;;;;7.37;3.07;;;11.90;68.80;;;;;;5025475;28;20459;-81
2023/03/21 01:29:14;;;;;;;6.60;3.10;;;11.90;68.70;;;;;;5013890;28;20758;-83
2023/03/21 01:31:42;;;;;;;8.77;3.23;;;11.90;68.70;;;;;;5016909;28;20686;-83
2023/03/21 01:34:10;;;;;;;12.30;3.70;;;11.90;68.70;;;;;;5009215;28;20508;-81
2023/03/21 01:36:38;;;;;;;5.67;3.40;;;11.90;68.70;;;;;;5009929;28;20511;-84
2023/03/21 01:39:12;;;;;;;8.23;3.90;;;11.90;68.70;;;;;;5020265;28;20467;-81
2023/03/21 01:41:42;;;;;;;11.53;5.77;;;11.80;68.70;;;;;;5002921;28;20464;-80
2023/03/21 01:44:29;;;;;;;8.33;3.47;;;11.80;68.70;;;;;;4997104;28;20806;-79
2023/03/21 01:46:58;;;;;;;9.00;4.00;;;11.70;68.80;;;;;;4992764;28;20540;-80
2023/03/21 01:50:21;;;;;;;8.73;3.20;;;11.70;68.80;;;;;;4956610;28;20490;-79
2023/03/21 01:53:12;;;;;;;7.47;3.57;;;11.70;68.90;;;;;;4949760;28;20890;-80
2023/03/21 01:55:42;;;;;;;8.73;3.40;;;11.60;69.00;;;;;;4979304;28;20467;-80
2023/03/21 01:58:30;;;;;;;7.77;3.60;;;11.60;69.00;;;;;;5009803;28;20439;-80
2023/03/21 02:01:05;;;;;;;10.90;4.10;;;11.70;69.00;;;;;;5012037;28;21001;-82
2023/03/21 02:03:49;;;;;;;8.57;3.03;;;11.60;69.00;;;;;;5013240;28;20531;-82
2023/03/21 02:06:54;;;;;;;8.60;3.67;;;11.60;69.10;;;;;;5011987;28;20472;-82
2023/03/21 02:09:48;;;;;;;7.73;4.13;;;11.60;69.20;;;;;;4999308;28;20489;-80
2023/03/21 02:12:21;;;;;;;7.47;4.17;;;11.70;69.20;;;;;;5014739;28;20467;-78
2023/03/21 02:14:51;;;;;;;6.63;3.50;;;11.70;69.20;;;;;;5011255;28;20475;-79
2023/03/21 02:17:43;;;;;;;7.53;3.70;;;11.70;69.20;;;;;;5009043;28;20504;-79
2023/03/21 02:20:37;;;;;;;7.93;3.97;;;11.60;69.40;;;;;;5006059;28;20461;-82
2023/03/21 02:23:54;;;;;;;9.00;5.47;;;11.60;69.40;;;;;;5012817;28;20461;-81
2023/03/21 02:26:42;;;;;;;8.27;4.63;;;11.60;69.50;;;;;;5005169;28;20487;-83
2023/03/21 02:29:38;;;;;;;9.57;5.43;;;11.60;69.60;;;;;;4984570;28;20998;-83
2023/03/21 02:32:17;;;;;;;9.30;5.07;;;11.60;69.60;;;;;;5012891;28;20484;-84
2023/03/21 02:35:24;;;;;;;8.43;3.97;;;11.50;69.70;;;;;;5015233;28;21061;-80
2023/03/21 02:38:00;;;;;;;10.43;4.00;;;11.50;69.80;;;;;;5014302;28;21306;-83
2023/03/21 02:40:38;;;;;;;8.10;4.50;;;11.50;69.70;;;;;;5009613;28;20920;-83
2023/03/21 02:43:16;;;;;;;7.20;3.67;;;11.40;69.80;;;;;;5008952;28;20457;-82
2023/03/21 02:45:56;;;;;;;10.37;4.10;;;11.40;69.90;;;;;;5013113;28;20633;-82
2023/03/21 02:48:32;;;;;;;7.37;3.83;;;11.30;69.90;;;;;;5012343;28;20480;-81
2023/03/21 02:51:19;;;;;;;5.70;3.23;;;11.30;70.00;;;;;;5008705;28;20547;-85
2023/03/21 02:53:53;;;;;;;9.83;3.70;;;11.20;70.20;;;;;;5012686;28;20453;-81
2023/03/21 02:56:43;;;;;;;7.80;3.70;;;11.20;70.30;;;;;;5010280;28;20489;-82
2023/03/21 02:59:12;;;;;;;7.90;4.07;;;11.10;70.40;;;;;;5012775;28;20880;-82
2023/03/21 03:01:40;;;;;;;7.93;3.10;;;11.10;70.40;;;;;;5006444;28;20482;-83
2023/03/21 03:04:19;;;;;;;7.50;3.43;;;11.10;70.50;;;;;;4997413;28;20463;-83
2023/03/21 03:07:07;;;;;;;7.47;3.27;;;11.00;70.60;;;;;;5011139;28;20460;-82
2023/03/21 03:09:48;;;;;;;9.23;3.70;;;11.00;70.70;;;;;;5014717;28;20670;-81
2023/03/21 03:12:26;;;;;;;6.37;3.50;;;11.00;70.80;;;;;;5016624;28;20448;-79
2023/03/21 03:15:02;;;;;;;9.13;3.67;;;10.90;70.80;;;;;;5017936;28;20467;-83
2023/03/21 03:17:45;;;;;;;6.37;3.37;;;10.90;70.80;;;;;;5012306;28;20556;-77
2023/03/21 03:20:34;;;;;;;9.50;3.93;;;10.90;70.90;;;;;;5011271;28;20466;-78
2023/03/21 03:23:13;;;;;;;7.37;3.60;;;10.80;70.90;;;;;;5016414;28;20461;-79
2023/03/21 03:25:50;;;;;;;8.23;3.63;;;10.80;71.10;;;;;;5014487;28;20499;-79
2023/03/21 03:28:22;;;;;;;9.00;4.00;;;10.80;70.90;;;;;;5016050;28;20719;-77
2023/03/21 03:30:53;;;;;;;6.90;3.17;;;10.70;70.90;;;;;;4996409;28;20476;-78
2023/03/21 03:33:46;;;;;;;8.40;3.87;;;10.60;71.10;;;;;;5010812;28;21972;-79
2023/03/21 03:36:18;;;;;;;11.33;3.50;;;10.60;71.20;;;;;;5013022;28;20468;-80
2023/03/21 03:39:30;;;;;;;7.20;3.40;;;10.60;71.30;;;;;;5012209;28;20454;-79
2023/03/21 03:42:05;;;;;;;7.77;3.53;;;10.60;71.40;;;;;;4997682;28;20555;-78
2023/03/21 03:44:58;;;;;;;7.57;3.60;;;10.60;71.50;;;;;;5007755;28;20583;-79
2023/03/21 03:47:34;;;;;;;9.77;3.63;;;10.60;71.50;;;;;;5010447;28;20483;-79
2023/03/21 03:50:16;;;;;;;7.00;3.87;;;10.70;71.50;;;;;;5016089;28;20472;-79
2023/03/21 03:52:49;;;;;;;11.50;3.10;;;10.70;71.50;;;;;;5019430;28;20491;-80
2023/03/21 03:55:33;;;;;;;10.03;3.67;;;10.70;71.50;;;;;;5007756;28;20701;-78
2023/03/21 03:58:08;;;;;;;10.60;4.13;;;10.70;71.60;;;;;;5013762;28;20549;-78
2023/03/21 04:00:54;;;;;;;9.00;4.20;;;10.70;71.50;;;;;;5014353;28;20468;-82
2023/03/21 04:03:23;;;;;;;7.23;3.77;;;10.70;71.50;;;;;;5011961;28;20559;-82
2023/03/21 04:05:53;;;;;;;9.87;4.10;;;10.70;71.60;;;;;;5015378;28;20468;-83
2023/03/21 04:08:23;;;;;;;14.20;4.43;;;10.70;71.60;;;;;;5015271;28;20459;-82
2023/03/21 04:11:01;;;;;;;7.17;3.93;;;10.60;71.60;;;;;;5021055;28;20491;-82
2023/03/21 04:13:33;;;;;;;9.00;4.40;;;10.60;71.80;;;;;;5013598;28;21127;-80
2023/03/21 04:16:08;;;;;;;10.53;4.60;;;10.60;71.80;;;;;;4995656;28;20527;-80
2023/03/21 04:18:38;;;;;;;9.57;4.30;;;10.60;71.80;;;;;;5013140;28;20489;-81
2023/03/21 04:21:11;;;;;;;11.23;4.27;;;10.60;71.80;;;;;;5016184;28;20715;-86
2023/03/21 04:23:40;;;;;;;12.20;5.50;;;10.60;72.00;;;;;;5020230;28;20983;-82
2023/03/21 04:26:08;;;;;;;8.50;4.07;;;10.60;72.00;;;;;;5000713;28;20456;-81
2023/03/21 04:28:47;;;;;;;9.27;3.70;;;10.60;72.00;;;;;;5013025;28;21181;-82
2023/03/21 04:31:36;;;;;;;13.40;7.40;;;10.60;72.00;;;;;;5016663;28;20539;-82
2023/03/21 04:34:11;;;;;;;9.43;4.83;;;10.60;72.00;;;;;;5015734;28;20485;-81
2023/03/21 04:36:44;;;;;;;11.37;4.80;;;10.60;72.00;;;;;;5014400;28;20477;-82
2023/03/21 04:39:13;;;;;;;9.83;6.03;;;10.60;72.00;;;;;;5014895;28;20458;-82
2023/03/21 04:41:45;;;;;;;12.83;4.40;;;10.60;72.10;;;;;;5019654;28;20462;-82
2023/03/21 04:44:15;;;;;;;9.73;4.63;;;10.60;72.10;;;;;;5015032;28;20598;-82
2023/03/21 04:46:44;;;;;;;9.73;5.17;;;10.60;72.00;;;;;;4999855;28;20452;-80
2023/03/21 04:49:14;;;;;;;11.10;5.20;;;10.50;72.00;;;;;;5013727;28;20471;-81
2023/03/21 04:51:44;;;;;;;10.53;4.73;;;10.50;72.10;;;;;;4999014;28;20962;-81
2023/03/21 04:54:15;;;;;;;12.07;5.60;;;10.50;72.10;;;;;;5005968;28;20494;-82
2023/03/21 04:56:43;;;;;;;10.70;5.13;;;10.40;72.20;;;;;;5013991;28;20468;-81
2023/03/21 04:59:15;;;;;;;9.93;5.80;;;10.50;72.20;;;;;;5010630;28;20462;-81
2023/03/21 05:01:43;;;;;;;10.90;4.10;;;10.40;72.10;;;;;;5014276;28;20555;-84
2023/03/21 05:04:14;;;;;;;10.40;6.00;;;10.40;72.00;;;;;;5018054;28;20460;-84
2023/03/21 05:06:43;;;;;;;11.47;5.13;;;10.40;72.00;;;;;;5013690;28;20488;-84
2023/03/21 05:09:12;;;;;;;12.93;5.10;;;10.30;72.00;;;;;;5013947;28;20552;-84
2023/03/21 05:11:41;;;;;;;11.37;6.63;;;10.30;72.00;;;;;;5018010;28;20483;-82
2023/03/21 05:14:17;;;;;;;14.03;6.27;;;10.30;72.00;;;;;;5011548;28;20461;-84
2023/03/21 05:16:51;;;;;;;13.63;7.70;;;10.30;72.00;;;;;;5011890;28;20461;-84
2023/03/21 05:19:22;;;;;;;15.10;8.10;;;10.30;72.00;;;;;;5015035;28;20460;-82
2023/03/21 05:21:51;;;;;;;17.13;7.77;;;10.20;72.00;;;;;;5008924;28;20461;-81
2023/03/21 05:24:22;;;;;;;18.60;8.33;;;10.20;72.10;;;;;;5011775;28;20464;-83
2023/03/21 05:26:51;;;;;;;12.53;7.87;;;10.20;71.80;;;;;;4999598;28;20464;-80
2023/03/21 05:29:24;;;;;;;19.30;7.30;;;10.10;71.80;;;;;;5013738;28;21215;-79
2023/03/21 05:31:59;;;;;;;12.97;6.53;;;10.10;72.00;;;;;;4996190;28;20898;-81
2023/03/21 05:34:29;;;;;;;15.50;9.40;;;10.10;72.00;;;;;;4992567;28;20466;-83
2023/03/21 05:36:57;;;;;;;15.50;8.00;;;10.00;72.10;;;;;;5014365;28;20495;-79
2023/03/21 05:39:31;;;;;;;12.47;6.67;;;10.00;72.20;;;;;;5011072;28;20460;-82
2023/03/21 05:42:07;;;;;;;9.87;5.63;;;10.00;72.10;;;;;;4997202;28;20518;-81
2023/03/21 05:44:39;;;;;;;15.10;5.77;;;10.00;72.10;;;;;;5012636;28;20537;-85
2023/03/21 05:47:09;;;;;;;11.50;5.37;;;10.00;72.00;;;;;;5005149;28;20986;-83
2023/03/21 05:49:42;;;;;;;10.77;4.80;;;10.00;72.00;;;;;;5013062;28;20457;-82
2023/03/21 05:52:11;;;;;;;10.13;5.17;;;9.90;72.00;;;;;;5010358;28;21039;-84
2023/03/21 05:54:39;;;;;;;9.10;4.57;;;9.90;71.90;;;;;;5010216;28;20461;-83
2023/03/21 05:57:09;;;;;;;9.80;5.20;;;9.80;72.00;;;;;;4997451;28;20503;-85
2023/03/21 05:59:57;;;;;;;9.00;4.80;;;9.80;72.10;;;;;;4996482;28;20472;-81
2023/03/21 06:02:26;;;;;;;14.37;6.20;;;9.80;72.20;;;;;;5008348;28;20714;-82
2023/03/21 06:04:56;;;;;;;16.87;6.90;;;9.80;72.20;;;;;;4993989;28;20460;-83
2023/03/21 06:07:24;;;;;;;16.10;8.47;;;9.80;72.30;;;;;;5007188;28;21013;-84
2023/03/21 06:09:52;;;;;;;14.10;7.30;;;9.80;72.30;;;;;;5011170;28;20551;-81
2023/03/21 06:12:21;;;;;;;11.57;6.30;;;9.90;72.20;;;;;;5009726;28;20473;-80
2023/03/21 06:15:08;;;;;;;9.77;5.23;;;9.90;72.20;;;;;;5006098;28;20505;-82
2023/03/21 06:17:44;;;;;;;9.90;5.13;;;9.90;72.10;;;;;;5013900;28;20988;-85
2023/03/21 06:20:13;;;;;;;8.43;5.17;;;9.80;72.10;;;;;;5011907;28;20452;-84
2023/03/21 06:22:49;;;;;;;9.30;5.90;;;9.80;72.10;;;;;;4999508;28;20497;-83
2023/03/21 06:25:17;;;;;;;9.87;5.70;;;9.80;72.00;;;;;;4993931;28;20458;-83
2023/03/21 06:27:45;;;;;;;16.97;6.17;;;9.80;72.10;;;;;;5012933;28;20470;-81
2023/03/21 06:30:16;;;;;;;12.30;6.23;;;9.80;72.10;;;;;;5011770;28;20471;-81
2023/03/21 06:33:01;;;;;;;10.47;6.00;;;9.80;72.10;;;;;;5007736;28;20999;-84
2023/03/21 06:35:29;;;;;;;11.60;7.53;;;9.80;72.00;;;;;;5017240;28;20494;-84
2023/03/21 06:37:58;;;;;;;13.77;8.67;;;9.80;72.00;;;;;;5011431;28;20460;-84
2023/03/21 06:40:32;;;;;;;13.60;7.97;;;9.80;72.20;;;;;;5007176;28;20475;-80
2023/03/21 06:43:00;;;;;;;10.60;6.37;;;9.80;72.30;;;;;;5007784;28;20615;-85
2023/03/21 06:45:29;;;;;;;9.67;5.60;;;9.80;72.30;;;;;;5010867;28;20463;-80
2023/03/21 06:47:57;;;;;;;11.47;6.17;;;9.80;72.30;;;;;;5009364;28;20459;-80
2023/03/21 06:50:42;;;;;;;13.20;5.93;;;9.80;72.30;;;;;;5006964;28;20480;-81
2023/03/21 06:53:10;;;;;;;13.70;7.10;;;9.80;72.50;;;;;;5010879;28;20473;-84
2023/03/21 06:56:09;;;;;;;12.50;6.07;;;9.80;72.60;;;;;;4991228;28;20461;-84
2023/03/21 06:58:38;;;;;;;8.87;5.53;;;9.90;72.70;;;;;;5007070;28;20457;-82
2023/03/21 07:01:10;;;;;;;9.47;6.40;;;9.90;72.80;;;;;;5006565;28;20828;-82
2023/03/21 07:03:49;;;;;;;13.80;8.17;;;10.00;72.90;;;;;;5006543;28;20469;-79
2023/03/21 07:06:20;;;;;;;16.60;9.70;;;10.10;72.90;;;;;;5009870;28;20534;-84
2023/03/21 07:08:48;;;;;;;18.70;8.97;;;10.10;73.00;;;;;;5016062;28;20508;-84
2023/03/21 07:11:16;;;;;;;22.23;11.20;;;10.20;73.10;;;;;;5007819;28;20560;-84
2023/03/21 07:13:48;;;;;;;15.53;10.00;;;10.30;73.10;;;;;;5007601;28;20468;-83
2023/03/21 07:16:20;;;;;;;12.27;7.50;;;10.40;73.10;;;;;;4993967;28;20495;-78
2023/03/21 07:18:48;;;;;;;15.03;7.53;;;10.50;73.10;;;;;;5012290;28;20520;-79
2023/03/21 07:21:17;;;;;;;12.83;6.90;;;10.60;73.00;;;;;;5003882;28;20464;-80
2023/03/21 07:23:45;;;;;;;10.17;5.63;;;10.70;73.00;;;;;;5006687;28;20551;-81
2023/03/21 07:26:14;;;;;;;10.90;6.47;;;10.70;73.00;;;;;;5007920;28;20833;-78
2023/03/21 07:28:43;;;;;;;12.27;6.17;;;10.80;73.00;;;;;;4995139;28;20451;-80
2023/03/21 07:31:14;;;;;;;13.17;7.33;;;10.90;73.00;;;;;;5014830;28;21015;-79
2023/03/21 07:33:44;;;;;;;11.87;6.30;;;11.00;73.00;;;;;;5009808;28;20461;-83
2023/03/21 07:36:14;;;;;;;11.90;6.00;;;11.00;72.90;;;;;;5008590;28;20461;-80
2023/03/21 07:38:42;;;;;;;13.53;5.67;;;11.10;72.90;;;;;;5009722;28;20468;-79
2023/03/21 07:41:10;;;;;;;14.70;5.73;;;11.20;72.90;;;;;;5006786;28;20474;-82
2023/03/21 07:43:38;;;;;;;11.73;5.73;;;11.20;72.90;;;;;;5006843;28;20517;-81
2023/03/21 07:46:10;;;;;;;14.03;6.40;;;11.30;72.90;;;;;;5008790;28;20462;-80
2023/03/21 07:48:38;;;;;;;10.20;6.60;;;11.30;72.90;;;;;;4993884;28;20469;-79
2023/03/21 07:51:08;;;;;;;12.03;6.10;;;11.30;72.90;;;;;;5004917;28;20860;-76
2023/03/21 07:53:36;;;;;;;12.63;5.90;;;11.40;72.90;;;;;;4993281;28;20846;-79
2023/03/21 07:56:05;;;;;;;13.63;6.37;;;11.50;72.80;;;;;;5005395;28;20526;-79
2023/03/21 07:58:33;;;;;;;10.50;6.07;;;11.50;72.90;;;;;;5007379;28;20460;-78
2023/03/21 08:01:02;;;;;;;10.60;5.80;;;11.60;72.80;;;;;;4991638;28;21196;-77
2023/03/21 08:03:32;;;;;;;14.87;5.93;;;11.60;72.80;;;;;;4993087;28;20598;-77
2023/03/21 08:06:00;;;;;;;10.93;5.60;;;11.70;72.70;;;;;;5009954;28;20971;-77
2023/03/21 08:08:30;;;;;;;10.47;5.23;;;11.70;72.70;;;;;;5009469;28;20458;-79
2023/03/21 08:10:58;;;;;;;9.80;5.80;;;11.70;72.60;;;;;;5001725;28;20470;-78
2023/03/21 08:13:26;;;;;;;12.40;5.50;;;11.70;72.60;;;;;;5003598;28;21097;-81
2023/03/21 08:15:54;;;;;;;11.70;5.57;;;11.80;72.50;;;;;;5006216;28;20473;-77
2023/03/21 08:18:22;;;;;;;10.67;5.00;;;11.80;72.50;;;;;;5009111;28;20460;-80
2023/03/21 08:20:52;;;;;;;12.23;5.57;;;11.80;72.50;;;;;;5008289;28;20471;-79
2023/03/21 08:23:21;;;;;;;11.90;5.23;;;11.90;72.50;;;;;;5010539;28;20812;-78
2023/03/21 08:25:53;;;;;;;9.80;4.97;;;11.90;72.50;;;;;;5009194;28;20453;-79
2023/03/21 08:28:22;;;;;;;10.20;5.10;;;12.00;72.40;;;;;;5011600;28;20477;-79
2023/03/21 08:30:50;;;;;;;13.63;5.10;;;12.10;72.20;;;;;;5010077;28;20495;-80
2023/03/21 08:33:18;;;;;;;10.37;3.80;;;12.00;72.20;;;;;;5010928;28;20586;-79
2023/03/21 08:35:46;;;;;;;13.57;4.73;;;12.00;72.20;;;;;;5011594;28;20642;-80
2023/03/21 08:38:15;;;;;;;8.73;3.97;;;12.10;72.10;;;;;;5011335;28;20450;-80
2023/03/21 08:40:43;;;;;;;8.43;3.87;;;12.10;72.10;;;;;;5013769;28;20486;-81
2023/03/21 08:43:13;;;;;;;8.33;4.20;;;12.10;72.10;;;;;;4998818;28;20468;-79
2023/03/21 08:45:41;;;;;;;9.30;4.67;;;12.10;72.10;;;;;;5012806;28;20970;-81
2023/03/21 08:48:09;;;;;;;13.43;4.60;;;12.20;71.90;;;;;;5009856;28;20470;-81
2023/03/21 08:50:38;;;;;;;10.07;4.60;;;12.20;71.80;;;;;;5013146;28;20461;-81
2023/03/21 08:53:06;;;;;;;15.80;5.67;;;12.20;71.80;;;;;;5009372;28;20498;-79
2023/03/21 08:55:34;;;;;;;10.47;5.20;;;12.20;71.70;;;;;;5013572;28;20477;-80
2023/03/21 08:58:02;;;;;;;11.63;5.90;;;12.30;71.60;;;;;;5008529;28;20464;-79
2023/03/21 09:00:31;;;;;;;12.10;5.07;;;12.30;71.60;;;;;;5006808;28;20495;-81
2023/03/21 09:03:00;;;;;;;9.73;5.10;;;12.30;71.50;;;;;;5010698;28;20466;-79
2023/03/21 09:05:28;;;;;;;13.87;5.27;;;12.30;71.50;;;;;;5005371;28;20835;-81
2023/03/21 09:07:56;;;;;;;11.67;5.57;;;12.30;71.50;;;;;;5006702;28;20457;-79
2023/03/21 09:10:24;;;;;;;10.90;4.93;;;12.40;71.40;;;;;;5015189;28;20571;-78
2023/03/21 09:12:54;;;;;;;11.10;5.40;;;12.40;71.50;;;;;;5007059;28;20483;-78
2023/03/21 09:15:23;;;;;;;10.73;5.40;;;12.40;71.50;;;;;;5004784;28;20477;-77
2023/03/21 09:17:54;;;;;;;11.10;4.90;;;12.50;71.30;;;;;;5010163;28;20470;-77
2023/03/21 09:20:29;;;;;;;12.50;6.13;;;12.50;71.40;;;;;;5013214;28;20470;-81
2023/03/21 09:23:00;;;;;;;14.80;5.57;;;12.50;71.40;;;;;;5009403;28;20519;-78
2023/03/21 09:25:29;;;;;;;11.17;5.27;;;12.50;71.40;;;;;;5009607;28;20795;-79
2023/03/21 09:27:59;;;;;;;9.83;5.10;;;12.50;71.40;;;;;;5010696;28;20453;-82
2023/03/21 09:30:28;;;;;;;8.60;5.50;;;12.60;71.30;;;;;;5010672;28;20515;-80
2023/03/21 09:32:59;;;;;;;14.10;5.47;;;12.60;71.20;;;;;;5009350;28;20484;-79
2023/03/21 09:35:28;;;;;;;10.57;6.03;;;12.70;71.10;;;;;;5006894;28;20537;-79
2023/03/21 09:37:56;;;;;;;14.57;6.50;;;12.70;71.10;;;;;;5011079;28;21208;-78
2023/03/21 09:40:34;;;;;;;12.77;5.90;;;12.70;71.10;;;;;;5011382;28;20475;-78
2023/03/21 09:43:13;;;;;;;9.27;5.53;;;12.80;71.10;;;;;;5000894;28;20469;-78
2023/03/21 09:45:45;;;;;;;35.47;6.07;;;12.80;71.10;;;;;;5011896;28;20479;-78
2023/03/21 09:48:24;;;;;;;11.83;5.50;;;12.90;71.10;;;;;;5011202;28;20457;-79
2023/03/21 09:50:53;;;;;;;10.03;5.47;;;12.90;71.00;;;;;;5007105;28;20495;-78
2023/03/21 09:53:26;;;;;;;10.00;5.40;;;13.00;71.00;;;;;;5005946;28;20543;-77
2023/03/21 09:55:54;;;;;;;9.77;4.73;;;13.00;70.90;;;;;;5003100;28;20460;-79
2023/03/21 09:58:26;;;;;;;9.97;4.90;;;13.10;70.90;;;;;;5005667;28;20494;-77
2023/03/21 10:01:04;;;;;;;9.23;4.43;;;13.20;70.80;;;;;;5008712;28;20575;-77
2023/03/21 10:03:35;;;;;;;11.40;5.00;;;13.30;70.80;;;;;;5009929;28;20464;-77
2023/03/21 10:06:07;;;;;;;9.53;4.53;;;13.40;70.70;;;;;;5010188;28;20471;-81
2023/03/21 10:08:37;;;;;;;10.60;4.00;;;13.50;70.50;;;;;;5007778;28;20468;-82
2023/03/21 10:11:12;;;;;;;9.30;3.77;;;13.60;70.30;;;;;;5007047;28;20550;-79
2023/03/21 10:13:44;;;;;;;10.53;3.73;;;13.50;70.40;;;;;;5006325;28;20484;-79
2023/03/21 10:16:16;;;;;;;9.90;4.40;;;13.70;70.30;;;;;;5006886;28;20729;-81
2023/03/21 10:18:47;;;;;;;9.27;4.03;;;13.70;70.10;;;;;;5006463;28;20511;-81
2023/03/21 10:21:21;;;;;;;8.07;3.97;;;13.90;69.80;;;;;;5009887;28;20481;-78
2023/03/21 10:24:13;;;;;;;9.73;3.30;;;13.90;69.50;;;;;;5002316;28;20518;-79
2023/03/21 10:26:42;;;;;;;10.70;3.67;;;13.90;69.40;;;;;;5006579;28;20468;-78
2023/03/21 10:29:12;;;;;;;8.73;3.80;;;13.90;69.40;;;;;;5006073;28;20452;-78
2023/03/21 10:31:42;;;;;;;8.50;4.20;;;13.90;69.30;;;;;;5007036;28;20487;-76
2023/03/21 10:34:17;;;;;;;11.40;4.43;;;14.00;69.20;;;;;;5009650;28;21083;-78
2023/03/21 10:36:45;;;;;;;13.53;3.97;;;14.00;68.90;;;;;;5009828;28;20468;-78
2023/03/21 10:39:24;;;;;;;10.00;4.20;;;14.10;68.80;;;;;;5006495;28;20462;-80
2023/03/21 10:41:52;;;;;;;10.53;4.60;;;14.10;68.80;;;;;;5005131;28;20463;-80
2023/03/21 10:44:21;;;;;;;9.40;3.90;;;14.10;68.70;;;;;;5005615;28;20440;-78
2023/03/21 10:46:53;;;;;;;14.00;4.30;;;14.10;68.70;;;;;;5004368;28;20942;-79
2023/03/21 10:49:25;;;;;;;8.80;4.10;;;14.10;68.70;;;;;;5011811;28;20934;-80
2023/03/21 10:51:56;;;;;;;11.30;4.60;;;14.20;68.70;;;;;;5004224;28;20461;-79
2023/03/21 10:54:29;;;;;;;13.20;4.10;;;14.20;68.50;;;;;;5013171;28;20485;-83
2023/03/21 10:57:00;;;;;;;8.20;3.83;;;14.30;68.40;;;;;;5007439;28;20449;-78
2023/03/21 10:59:34;;;;;;;9.10;4.40;;;14.30;68.30;;;;;;5009394;28;20472;-81
2023/03/21 11:02:04;;;;;;;8.70;3.87;;;14.40;68.20;;;;;;5009183;28;20527;-78
2023/03/21 11:04:36;;;;;;;12.37;3.73;;;14.40;68.20;;;;;;5012867;28;20872;-78
2023/03/21 11:07:06;;;;;;;7.20;3.40;;;14.40;68.20;;;;;;5007653;28;20456;-80
2023/03/21 11:09:46;;;;;;;8.10;3.60;;;14.40;68.30;;;;;;5006785;28;20458;-81
2023/03/21 11:12:16;;;;;;;9.80;3.20;;;14.50;68.30;;;;;;5010937;28;20946;-78
2023/03/21 11:14:46;;;;;;;11.80;3.90;;;14.50;68.10;;;;;;5010450;28;20497;-82
2023/03/21 11:17:23;;;;;;;8.00;3.10;;;14.60;68.10;;;;;;5009575;28;20452;-79
2023/03/21 11:19:54;;;;;;;7.33;3.50;;;14.60;67.90;;;;;;5006766;28;20448;-82
2023/03/21 11:22:25;;;;;;;8.20;3.37;;;14.60;67.90;;;;;;5013794;28;20462;-81
2023/03/21 11:25:00;;;;;;;13.23;3.80;;;14.70;67.70;;;;;;5011478;28;20441;-78
2023/03/21 11:27:29;;;;;;;7.43;2.97;;;14.80;67.60;;;;;;5011165;28;20714;-82
2023/03/21 11:30:01;;;;;;;8.77;2.70;;;14.80;67.50;;;;;;5013871;28;20508;-83
2023/03/21 11:32:33;;;;;;;8.00;2.80;;;14.90;67.40;;;;;;5014149;28;20482;-78
2023/03/21 11:35:05;;;;;;;7.60;2.70;;;14.90;67.30;;;;;;5012743;28;20554;-81
2023/03/21 11:37:38;;;;;;;9.43;2.47;;;14.90;67.00;;;;;;5010103;28;20464;-79
2023/03/21 11:40:18;;;;;;;5.60;2.33;;;14.90;66.90;;;;;;5019736;28;20450;-78
2023/03/21 11:42:50;;;;;;;5.73;1.97;;;14.90;66.80;;;;;;5016370;28;20461;-80
2023/03/21 11:45:20;;;;;;;4.67;1.83;;;14.90;66.70;;;;;;5013369;28;20454;-80
2023/03/21 11:47:50;;;;;;;12.70;2.40;;;14.90;66.60;;;;;;5012437;28;20463;-78
2023/03/21 11:50:34;;;;;;;7.27;2.23;;;14.90;66.70;;;;;;5013712;28;20508;-82
2023/03/21 11:53:20;;;;;;;10.17;2.80;;;14.90;66.50;;;;;;5012143;28;20459;-80
2023/03/21 11:56:01;;;;;;;12.87;2.57;;;14.90;66.40;;;;;;5010804;28;20444;-82
2023/03/21 11:58:41;;;;;;;6.90;2.40;;;15.00;66.40;;;;;;5011318;28;20496;-81
2023/03/21 12:01:19;;;;;;;9.87;2.97;;;15.00;66.40;;;;;;5013542;28;20542;-81
2023/03/21 12:04:07;;;;;;;7.63;3.20;;;15.00;66.50;;;;;;5008836;28;20503;-81
2023/03/21 12:06:40;;;;;;;10.43;2.73;;;15.00;66.30;;;;;;5013726;28;20456;-82
2023/03/21 12:09:26;;;;;;;8.50;2.80;;;15.00;66.30;;;;;;5012625;28;20453;-82
2023/03/21 12:12:15;;;;;;;6.90;2.13;;;15.00;66.20;;;;;;5010266;28;20816;-79
2023/03/21 12:14:56;;;;;;;10.67;2.63;;;15.10;65.90;;;;;;5013055;28;20556;-78
2023/03/21 12:17:40;;;;;;;6.60;2.63;;;15.10;65.90;;;;;;5009565;28;20472;-78
2023/03/21 12:20:20;;;;;;;6.43;2.50;;;15.10;66.00;;;;;;5013250;28;20456;-79
2023/03/21 12:23:03;;;;;;;6.17;2.60;;;15.10;66.00;;;;;;5017630;28;20460;-81
2023/03/21 12:25:35;;;;;;;7.50;3.30;;;15.10;66.00;;;;;;5010648;28;21016;-80
2023/03/21 12:28:18;;;;;;;8.30;3.30;;;15.10;66.00;;;;;;5012457;28;20828;-82
2023/03/21 12:31:09;;;;;;;8.93;2.87;;;15.10;66.00;;;;;;5010191;28;20505;-82
2023/03/21 12:33:54;;;;;;;6.13;2.57;;;15.10;66.00;;;;;;5011533;28;20539;-80
2023/03/21 12:36:36;;;;;;;7.87;2.53;;;15.20;65.70;;;;;;5010564;28;21273;-80
2023/03/21 12:39:16;;;;;;;5.33;2.63;;;15.20;65.70;;;;;;5011180;28;20463;-80
2023/03/21 12:41:51;;;;;;;6.83;2.27;;;15.20;65.70;;;;;;5013034;28;20450;-81
2023/03/21 12:44:23;;;;;;;7.93;2.47;;;15.20;65.80;;;;;;5010250;28;20465;-83
2023/03/21 12:46:57;;;;;;;7.07;2.90;;;15.20;65.80;;;;;;5009359;28;20476;-81
2023/03/21 12:49:30;;;;;;;7.70;2.77;;;15.20;65.80;;;;;;5008527;28;20963;-81
2023/03/21 12:52:04;;;;;;;8.53;2.80;;;15.10;65.50;;;;;;5003352;28;20578;-83
2023/03/21 12:54:38;;;;;;;9.73;2.70;;;15.00;65.70;;;;;;5009234;28;20513;-82
2023/03/21 12:57:10;;;;;;;7.23;2.43;;;15.00;65.70;;;;;;4992010;28;20918;-82
2023/03/21 12:59:44;;;;;;;8.50;2.57;;;15.10;65.30;;;;;;5009080;28;20944;-82
2023/03/21 13:02:22;;;;;;;7.77;2.53;;;15.00;65.20;;;;;;5010729;28;20494;-80
2023/03/21 13:04:59;;;;;;;7.43;2.33;;;15.00;65.20;;;;;;5011395;28;20437;-83
2023/03/21 13:07:31;;;;;;;6.50;2.77;;;15.00;65.20;;;;;;5014803;28;20514;-82
2023/03/21 13:10:02;;;;;;;8.80;2.53;;;15.00;65.30;;;;;;5012564;28;20465;-82
2023/03/21 13:12:55;;;;;;;7.20;2.43;;;15.00;65.20;;;;;;5012220;28;20460;-82
2023/03/21 13:15:47;;;;;;;7.33;2.50;;;15.10;65.20;;;;;;5015918;28;20493;-83
2023/03/21 13:18:23;;;;;;;9.53;2.47;;;15.10;65.10;;;;;;5009294;28;20466;-80
2023/03/21 13:20:55;;;;;;;6.60;2.63;;;15.10;65.10;;;;;;5010864;28;20466;-83